Time,TemperatureF,DewpointF,PressureIn,WindDirection,WindDirectionDegrees,WindSpeedMPH,WindSpeedGustMPH,Humidity,HourlyPrecipIn,Conditions,Clouds,dailyrainin,SolarRadiationWatts/m^2,SoftwareType,DateUTC
2013-01-20 00:32:00,16.0,14.0,-100.00,ESE,119,1.0,2.0,93,-99.99,,,0.00,0.000000,,2013-01-20 07:32:00,
2013-01-20 01:22:00,15.0,14.0,-100.00,WSW,250,0.0,2.0,94,-99.99,,,0.00,0.000000,,2013-01-20 08:22:00,
2013-01-20 02:33:00,14.0,13.0,-100.00,ESE,122,0.0,2.0,94,-99.99,,,0.00,0.000000,,2013-01-20 09:33:00,
2013-01-20 03:32:00,13.0,12.0,-100.00,WSW,250,0.0,2.0,95,-99.99,,,0.00,0.000000,,2013-01-20 10:32:00,
2013-01-20 04:22:00,12.0,11.0,-100.00,ESE,116,1.0,3.0,95,-99.99,,,0.00,0.000000,,2013-01-20 11:22:00,
2013-01-20 04:33:00,12.0,11.0,-100.00,ESE,116,1.0,3.0,95,-99.99,,,0.00,0.000000,,2013-01-20 11:33:00,
2013-01-20 05:33:00,12.0,11.0,-100.00,ESE,119,1.0,4.0,94,0.00,,,0.00,0.000000,,2013-01-20 12:33:00,
2013-01-20 06:33:00,12.0,11.0,-100.00,East,100,1.0,3.0,95,-99.99,,,0.00,0.000000,,2013-01-20 13:33:00,
2013-01-20 07:23:00,12.0,11.0,-100.00,ESE,120,1.0,3.0,96,-99.99,,,0.00,0.000000,,2013-01-20 14:23:00,
2013-01-20 07:33:00,12.0,11.0,-100.00,ESE,120,1.0,3.0,96,-99.99,,,0.00,0.000000,,2013-01-20 14:33:00,
2013-01-20 08:33:00,12.0,11.0,-100.00,SE,125,0.0,2.0,95,-99.99,,,0.00,0.000000,,2013-01-20 15:33:00,
2013-01-20 09:33:00,14.0,12.0,-100.00,ESE,104,1.0,3.0,92,-99.99,,,0.00,23.000000,,2013-01-20 16:33:00,
2013-01-20 10:33:00,18.0,13.0,-100.00,SW,215,2.0,4.0,82,-99.99,,,0.00,34.000000,,2013-01-20 17:33:00,
2013-01-20 11:24:00,27.0,16.0,-100.00,SE,124,1.0,3.0,63,-99.99,,,0.00,150.000000,,2013-01-20 18:24:00,
2013-01-20 11:33:00,27.0,16.0,-100.00,SE,124,1.0,3.0,63,-99.99,,,0.00,150.000000,,2013-01-20 18:33:00,
2013-01-20 12:33:00,35.0,14.0,-100.00,NNW,343,1.0,6.0,41,-99.99,,,0.00,363.000000,,2013-01-20 19:33:00,
2013-01-20 13:33:00,34.0,13.0,-100.00,SE,127,1.0,7.0,41,-99.99,,,0.00,498.000000,,2013-01-20 20:33:00,
2013-01-20 14:33:00,35.0,13.0,-100.00,NNE,23,1.0,5.0,39,-99.99,,,0.00,471.000000,,2013-01-20 21:33:00,
2013-01-20 15:33:00,36.0,13.0,-100.00,West,263,1.0,5.0,39,-99.99,,,0.00,370.000000,,2013-01-20 22:33:00,
2013-01-20 16:23:00,30.0,13.0,-100.00,NNW,339,1.0,3.0,48,-99.99,,,0.00,184.000000,,2013-01-20 23:23:00,
2013-01-20 16:33:00,30.0,13.0,-100.00,NNW,339,1.0,3.0,48,-99.99,,,0.00,184.000000,,2013-01-20 23:33:00,
2013-01-20 16:43:00,30.0,13.0,-100.00,NNW,339,1.0,3.0,48,-99.99,,,0.00,184.000000,,2013-01-20 23:43:00,
2013-01-20 16:53:00,30.0,13.0,-100.00,NNW,339,1.0,3.0,48,-99.99,,,0.00,184.000000,,2013-01-20 23:53:00,
2013-01-20 17:02:00,30.0,13.0,-100.00,NNW,339,1.0,3.0,48,-99.99,,,0.00,184.000000,,2013-01-21 00:02:00,
2013-01-20 17:23:00,22.0,13.0,-100.00,NNE,21,1.0,3.0,69,0.00,,,0.00,26.000000,,2013-01-21 00:23:00,
2013-01-20 17:33:00,22.0,13.0,-100.00,NNE,21,1.0,3.0,69,0.00,,,0.00,26.000000,,2013-01-21 00:33:00,
2013-01-20 17:43:00,22.0,13.0,-100.00,NNE,21,1.0,3.0,69,0.00,,,0.00,26.000000,,2013-01-21 00:43:00,
2013-01-20 17:53:00,22.0,13.0,-100.00,NNE,21,1.0,3.0,69,0.00,,,0.00,26.000000,,2013-01-21 00:53:00,
2013-01-20 18:02:00,22.0,13.0,-100.00,NNE,21,1.0,3.0,69,0.00,,,0.00,26.000000,,2013-01-21 01:02:00,
2013-01-20 18:33:00,16.0,12.0,-100.00,East,96,1.0,2.0,85,0.00,,,0.00,2.000000,,2013-01-21 01:33:00,
2013-01-20 18:43:00,16.0,12.0,-100.00,East,96,1.0,2.0,85,0.00,,,0.00,2.000000,,2013-01-21 01:43:00,
2013-01-20 18:53:00,16.0,12.0,-100.00,East,96,1.0,2.0,85,0.00,,,0.00,2.000000,,2013-01-21 01:53:00,
2013-01-20 19:02:00,16.0,12.0,-100.00,East,96,1.0,2.0,85,0.00,,,0.00,2.000000,,2013-01-21 02:02:00,
2013-01-20 19:23:00,13.0,11.0,-100.00,ENE,69,0.0,3.0,91,0.00,,,0.00,0.000000,,2013-01-21 02:23:00,
2013-01-20 19:33:00,13.0,11.0,-100.00,ENE,69,0.0,3.0,91,0.00,,,0.00,0.000000,,2013-01-21 02:33:00,
2013-01-20 19:43:00,13.0,11.0,-100.00,ENE,69,0.0,3.0,91,0.00,,,0.00,0.000000,,2013-01-21 02:43:00,
2013-01-20 19:53:00,13.0,11.0,-100.00,ENE,69,0.0,3.0,91,0.00,,,0.00,0.000000,,2013-01-21 02:53:00,
2013-01-20 20:02:00,13.0,11.0,-100.00,ENE,69,0.0,3.0,91,0.00,,,0.00,0.000000,,2013-01-21 03:02:00,
2013-01-20 20:33:00,13.0,11.0,-100.00,NE,52,1.0,2.0,92,0.00,,,0.00,0.000000,,2013-01-21 03:33:00,
2013-01-20 20:43:00,13.0,11.0,-100.00,NE,52,1.0,2.0,92,0.00,,,0.00,0.000000,,2013-01-21 03:43:00,
2013-01-20 20:53:00,13.0,11.0,-100.00,NE,52,1.0,2.0,92,0.00,,,0.00,0.000000,,2013-01-21 03:53:00,
2013-01-20 21:02:00,13.0,11.0,-100.00,NE,52,1.0,2.0,92,0.00,,,0.00,0.000000,,2013-01-21 04:02:00,
2013-01-20 21:33:00,13.0,11.0,-100.00,East,82,1.0,2.0,92,0.00,,,0.00,0.000000,,2013-01-21 04:33:00,
2013-01-20 22:22:00,12.0,11.0,-100.00,ESE,104,1.0,4.0,94,-99.99,,,0.00,0.000000,,2013-01-21 05:22:00,
2013-01-20 22:34:00,12.0,11.0,-100.00,ESE,104,1.0,4.0,94,-99.99,,,0.00,0.000000,,2013-01-21 05:34:00,
2013-01-20 23:33:00,12.0,11.0,-100.00,ESE,106,1.0,4.0,95,0.00,,,0.00,0.000000,,2013-01-21 06:33:00,